Time;durP1;ratioP1;P1;durP2;ratioP2;P2;SDS_P1;SDS_P2;PMS_P1;PMS_P2;Temp;Humidity;BMP_temperature;BMP_pressure;BME280_temperature;BME280_humidity;BME280_pressure;Samples;Min_cycle;Max_cycle;Signal;HPM_P1;HPM_P2
2021/05/30 00:00:49;;;;;;;4.77;3.20;;;12.80;99.90;;;;;;5040997;28;20436;-50
2021/05/30 00:03:17;;;;;;;4.10;3.13;;;12.80;99.90;;;;;;5041323;28;20471;-49
2021/05/30 00:05:44;;;;;;;4.40;3.10;;;12.80;99.90;;;;;;5040280;28;20448;-46
2021/05/30 00:08:10;;;;;;;5.33;3.10;;;12.80;99.90;;;;;;5037136;28;20440;-48
2021/05/30 00:10:36;;;;;;;5.17;3.93;;;12.70;99.90;;;;;;5038462;28;20464;-49
2021/05/30 00:13:07;;;;;;;3.90;2.80;;;12.70;99.90;;;;;;5039201;28;20455;-49
2021/05/30 00:15:34;;;;;;;6.03;2.70;;;12.60;99.90;;;;;;5036451;28;20465;-45
2021/05/30 00:18:00;;;;;;;5.47;3.20;;;12.60;99.90;;;;;;5038469;28;20483;-51
2021/05/30 00:20:26;;;;;;;2.93;2.50;;;12.60;99.90;;;;;;5034960;28;20502;-51
2021/05/30 00:22:52;;;;;;;4.60;3.93;;;12.60;99.90;;;;;;5035919;28;20456;-53
2021/05/30 00:25:18;;;;;;;3.20;2.63;;;12.60;99.90;;;;;;5047825;28;20436;-52
2021/05/30 00:27:44;;;;;;;4.50;3.23;;;12.60;99.90;;;;;;5038405;28;20436;-51
2021/05/30 00:32:47;;;;;;;3.70;3.13;;;12.50;99.90;;;;;;5781618;23;20526;-47
2021/05/30 00:35:13;;;;;;;5.47;3.47;;;12.40;99.90;;;;;;4985965;28;20510;-48
2021/05/30 00:37:39;;;;;;;5.63;3.40;;;12.30;99.90;;;;;;4983723;28;20526;-51
2021/05/30 00:40:07;;;;;;;7.13;3.50;;;12.30;99.90;;;;;;4981700;28;20455;-51
2021/05/30 00:42:33;;;;;;;3.60;3.30;;;12.20;99.90;;;;;;4976493;28;20826;-52
2021/05/30 00:45:00;;;;;;;4.10;3.37;;;12.30;99.90;;;;;;4976498;28;20439;-51
2021/05/30 00:47:26;;;;;;;5.23;3.43;;;12.30;99.90;;;;;;4977895;28;20510;-48
2021/05/30 00:49:53;;;;;;;8.37;3.20;;;12.20;99.90;;;;;;4978219;28;20462;-49
2021/05/30 00:52:19;;;;;;;5.90;4.00;;;12.20;99.90;;;;;;4976016;28;20450;-52
2021/05/30 00:54:45;;;;;;;5.20;3.03;;;12.10;99.90;;;;;;4975506;28;20509;-49
2021/05/30 00:57:12;;;;;;;4.50;3.17;;;12.10;99.90;;;;;;4975411;28;20964;-49
2021/05/30 00:59:41;;;;;;;3.80;3.17;;;12.10;99.90;;;;;;4975809;28;20455;-52
2021/05/30 01:02:07;;;;;;;4.00;3.60;;;12.10;99.90;;;;;;4975696;28;20918;-53
2021/05/30 01:04:34;;;;;;;4.27;2.90;;;12.10;99.90;;;;;;4975943;28;20454;-47
2021/05/30 01:07:01;;;;;;;5.53;3.80;;;12.10;99.90;;;;;;4975407;28;20481;-48
2021/05/30 01:27:36;;;;;;;4.80;4.30;;;11.80;99.90;;;;;;5893387;23;20493;-49
2021/05/30 01:30:04;;;;;;;4.43;4.00;;;11.90;99.90;;;;;;5017238;28;20438;-50
2021/05/30 01:32:30;;;;;;;11.93;3.77;;;11.80;99.90;;;;;;5016850;28;20442;-45
2021/05/30 01:34:57;;;;;;;3.63;2.80;;;11.80;99.90;;;;;;5016676;28;20478;-45
2021/05/30 01:37:23;;;;;;;5.47;2.90;;;11.70;99.90;;;;;;5016925;28;20454;-49
2021/05/30 01:39:49;;;;;;;3.67;3.30;;;11.70;99.90;;;;;;5016102;28;20465;-46
2021/05/30 01:42:15;;;;;;;10.20;3.73;;;11.60;99.90;;;;;;5016818;28;20448;-52
2021/05/30 01:44:43;;;;;;;4.70;3.73;;;11.70;99.90;;;;;;5016530;28;20472;-49
2021/05/30 01:47:09;;;;;;;5.70;3.87;;;11.60;99.90;;;;;;5016537;28;20446;-51
2021/05/30 01:49:36;;;;;;;4.13;3.60;;;11.60;99.90;;;;;;5016424;28;20430;-51
2021/05/30 01:52:02;;;;;;;4.73;3.50;;;11.60;99.90;;;;;;5016659;28;20470;-48
2021/05/30 01:54:30;;;;;;;7.43;3.43;;;11.60;99.90;;;;;;5016622;28;20492;-50
2021/05/30 01:56:58;;;;;;;3.83;2.73;;;11.50;99.90;;;;;;5016728;28;20454;-48
2021/05/30 01:59:25;;;;;;;6.30;3.23;;;11.50;99.90;;;;;;5016577;28;20449;-50
2021/05/30 02:01:57;;;;;;;4.37;3.53;;;11.50;99.90;;;;;;5016652;28;20440;-52
2021/05/30 02:04:30;;;;;;;8.40;4.20;;;11.50;99.90;;;;;;5017151;28;20414;-49
2021/05/30 02:06:57;;;;;;;6.33;4.47;;;11.40;99.90;;;;;;5016403;28;20477;-51
2021/05/30 02:09:23;;;;;;;4.47;3.33;;;11.40;99.90;;;;;;5016474;28;20443;-53
2021/05/30 02:11:50;;;;;;;4.33;3.67;;;11.40;99.90;;;;;;5016068;28;20442;-48
2021/05/30 02:14:19;;;;;;;4.73;3.30;;;11.40;99.90;;;;;;5016394;28;20546;-52
2021/05/30 02:16:46;;;;;;;3.43;2.80;;;11.40;99.90;;;;;;5016182;28;20481;-47
2021/05/30 02:19:13;;;;;;;5.53;2.73;;;11.40;99.90;;;;;;5016257;28;20461;-51
2021/05/30 02:21:42;;;;;;;5.00;3.17;;;11.30;99.90;;;;;;5016554;28;20441;-52
2021/05/30 02:24:09;;;;;;;5.40;3.00;;;11.30;99.90;;;;;;5016562;28;20446;-53
2021/05/30 02:26:35;;;;;;;5.47;3.33;;;11.30;99.90;;;;;;5016876;28;20972;-52
2021/05/30 02:29:02;;;;;;;4.57;3.20;;;11.30;99.90;;;;;;5016312;28;20478;-49
2021/05/30 02:31:28;;;;;;;6.90;3.10;;;11.30;99.90;;;;;;5016875;28;20469;-51
2021/05/30 02:33:54;;;;;;;4.53;3.67;;;11.20;99.90;;;;;;5016544;28;20449;-55
2021/05/30 02:36:21;;;;;;;5.20;3.10;;;11.20;99.90;;;;;;5016749;28;20795;-48
2021/05/30 02:38:47;;;;;;;5.40;3.50;;;11.30;99.90;;;;;;5016532;28;20442;-50
2021/05/30 02:41:14;;;;;;;5.60;3.70;;;11.30;99.90;;;;;;5016777;28;20453;-55
2021/05/30 02:43:42;;;;;;;4.90;2.70;;;11.30;99.90;;;;;;5016269;28;20425;-51
2021/05/30 02:46:08;;;;;;;5.20;3.33;;;11.30;99.90;;;;;;5016457;28;20504;-52
2021/05/30 02:48:36;;;;;;;3.77;3.30;;;11.30;99.90;;;;;;5016847;28;20470;-54
2021/05/30 02:51:02;;;;;;;4.83;2.93;;;11.30;99.90;;;;;;5017534;28;20450;-51
2021/05/30 02:53:31;;;;;;;6.60;2.77;;;11.30;99.90;;;;;;5019678;28;20442;-53
2021/05/30 02:56:02;;;;;;;4.40;3.20;;;11.30;99.90;;;;;;5019482;28;20492;-49
2021/05/30 02:58:29;;;;;;;6.00;3.03;;;11.30;99.90;;;;;;5019581;28;20443;-46
2021/05/30 03:00:56;;;;;;;5.40;3.53;;;11.30;99.90;;;;;;5019389;28;20481;-46
2021/05/30 03:03:23;;;;;;;10.47;2.70;;;11.40;99.90;;;;;;5019361;28;20450;-51
2021/05/30 03:05:49;;;;;;;6.30;4.33;;;11.30;99.90;;;;;;5019185;28;20454;-44
2021/05/30 03:08:15;;;;;;;3.13;2.83;;;11.30;99.90;;;;;;5019159;28;20469;-51
2021/05/30 03:10:42;;;;;;;3.87;3.10;;;11.40;99.90;;;;;;5019176;28;20446;-47
2021/05/30 03:13:09;;;;;;;5.90;3.20;;;11.40;99.90;;;;;;5019619;28;20450;-53
2021/05/30 03:15:35;;;;;;;5.00;3.23;;;11.40;99.90;;;;;;5018932;28;20482;-44
2021/05/30 03:18:01;;;;;;;8.40;3.10;;;11.40;99.90;;;;;;5018792;28;20457;-53
2021/05/30 03:20:27;;;;;;;6.10;2.83;;;11.40;99.90;;;;;;5019269;28;20447;-51
2021/05/30 03:22:53;;;;;;;4.50;3.00;;;11.40;99.90;;;;;;5019490;28;20446;-47
2021/05/30 03:25:19;;;;;;;3.13;2.83;;;11.30;99.90;;;;;;5019256;28;20450;-52
2021/05/30 03:27:49;;;;;;;6.70;3.63;;;11.30;99.90;;;;;;5016647;28;20462;-49
2021/05/30 03:30:16;;;;;;;6.50;2.67;;;11.30;99.90;;;;;;4999985;28;20443;-50
2021/05/30 03:32:42;;;;;;;6.57;3.00;;;11.40;99.90;;;;;;4999846;28;20435;-52
2021/05/30 03:35:09;;;;;;;4.83;2.83;;;11.40;99.90;;;;;;5009433;28;20481;-50
2021/05/30 03:37:35;;;;;;;5.77;3.10;;;11.40;99.90;;;;;;5018494;28;20426;-54
2021/05/30 03:40:11;;;;;;;5.50;3.10;;;11.30;99.90;;;;;;5018414;28;20460;-47
2021/05/30 03:42:41;;;;;;;4.10;3.00;;;11.30;99.90;;;;;;5018325;28;20457;-51
2021/05/30 03:45:13;;;;;;;4.10;3.17;;;11.30;99.90;;;;;;5018729;28;20438;-55
2021/05/30 03:47:39;;;;;;;5.60;3.03;;;11.40;99.90;;;;;;5018553;28;20434;-51
2021/05/30 03:50:07;;;;;;;3.90;3.40;;;11.40;99.90;;;;;;5018829;28;20442;-54
2021/05/30 03:52:33;;;;;;;7.20;3.30;;;11.40;99.90;;;;;;5018860;28;20465;-51
2021/05/30 03:54:59;;;;;;;4.60;2.80;;;11.40;99.90;;;;;;5019183;28;20485;-53
2021/05/30 03:57:25;;;;;;;7.07;2.90;;;11.40;99.90;;;;;;5018871;28;20442;-52
2021/05/30 03:59:51;;;;;;;4.20;2.63;;;11.50;99.90;;;;;;5018983;28;20446;-51
2021/05/30 04:02:18;;;;;;;3.20;2.83;;;11.50;99.90;;;;;;5017983;28;20466;-52
2021/05/30 04:04:44;;;;;;;7.97;3.53;;;11.50;99.90;;;;;;5018803;28;20426;-52
2021/05/30 04:07:11;;;;;;;4.03;2.87;;;11.50;99.90;;;;;;5018409;28;20466;-48
2021/05/30 04:09:37;;;;;;;4.10;2.97;;;11.60;99.90;;;;;;5019042;28;20430;-51
2021/05/30 04:12:04;;;;;;;5.40;3.10;;;11.60;99.90;;;;;;5018811;28;20453;-50
2021/05/30 04:14:30;;;;;;;9.10;2.90;;;11.60;99.90;;;;;;5018778;28;20466;-48
2021/05/30 04:16:56;;;;;;;2.87;2.23;;;11.60;99.90;;;;;;5017823;28;20434;-49
2021/05/30 04:19:25;;;;;;;4.47;3.30;;;11.60;99.90;;;;;;5018331;28;20450;-49
2021/05/30 04:21:51;;;;;;;4.60;3.17;;;11.70;99.90;;;;;;5018161;28;20446;-53
2021/05/30 04:24:17;;;;;;;7.43;2.90;;;11.70;99.90;;;;;;5017765;28;20442;-48
2021/05/30 04:26:43;;;;;;;2.50;2.30;;;11.70;99.90;;;;;;5017619;28;20955;-51
2021/05/30 04:29:10;;;;;;;5.60;2.73;;;11.70;99.90;;;;;;5017533;28;20871;-53
2021/05/30 04:31:36;;;;;;;3.43;3.13;;;11.80;99.90;;;;;;5017452;28;20473;-50
2021/05/30 04:34:02;;;;;;;3.87;2.63;;;11.80;99.90;;;;;;5017013;28;20513;-49
2021/05/30 04:36:29;;;;;;;6.53;3.00;;;11.90;99.90;;;;;;5018051;28;20477;-51
2021/05/30 04:38:57;;;;;;;7.43;3.07;;;11.90;99.90;;;;;;5017315;28;20430;-52
2021/05/30 04:41:23;;;;;;;3.97;2.83;;;11.90;99.90;;;;;;5017165;28;20481;-45
2021/05/30 04:43:49;;;;;;;4.87;2.77;;;12.00;99.90;;;;;;5017201;28;20472;-46
2021/05/30 04:46:16;;;;;;;6.33;2.97;;;12.00;99.90;;;;;;5017547;28;20498;-47
2021/05/30 04:48:42;;;;;;;7.20;3.00;;;12.00;99.90;;;;;;5010235;28;20447;-50
2021/05/30 04:51:12;;;;;;;6.20;2.87;;;12.00;99.90;;;;;;4998162;28;20438;-49
2021/05/30 04:53:41;;;;;;;3.73;2.60;;;12.00;99.90;;;;;;4997430;28;20466;-47
2021/05/30 04:56:09;;;;;;;4.03;2.90;;;12.10;99.90;;;;;;4997739;28;20587;-50
2021/05/30 04:58:35;;;;;;;3.93;2.60;;;12.10;99.90;;;;;;4997569;28;20443;-50
2021/05/30 05:01:06;;;;;;;6.63;3.10;;;12.10;99.90;;;;;;4997648;28;20435;-51
2021/05/30 05:03:33;;;;;;;6.40;3.30;;;12.10;99.90;;;;;;4997455;28;20909;-49
2021/05/30 05:05:59;;;;;;;5.03;2.50;;;12.20;99.90;;;;;;4997706;28;20454;-48
2021/05/30 05:08:26;;;;;;;4.67;3.13;;;12.20;99.90;;;;;;4997525;28;20482;-49
2021/05/30 05:10:53;;;;;;;3.53;2.40;;;12.20;99.90;;;;;;4997492;28;20443;-54
2021/05/30 05:13:20;;;;;;;3.10;2.73;;;12.30;99.90;;;;;;4996899;28;20462;-52
2021/05/30 05:15:48;;;;;;;4.50;3.10;;;12.30;99.90;;;;;;4997115;28;20495;-48
2021/05/30 05:18:16;;;;;;;6.37;3.57;;;12.40;99.90;;;;;;4996446;28;20422;-46
2021/05/30 05:20:43;;;;;;;9.07;2.70;;;12.40;99.90;;;;;;4996846;28;20439;-54
2021/05/30 05:23:11;;;;;;;6.17;4.10;;;12.50;99.90;;;;;;4997171;28;20451;-45
2021/05/30 05:25:37;;;;;;;7.50;2.90;;;12.50;99.90;;;;;;4997149;28;20470;-52
2021/05/30 05:28:05;;;;;;;7.73;3.40;;;12.60;99.90;;;;;;4996502;28;20479;-48
2021/05/30 05:30:31;;;;;;;4.50;2.33;;;12.60;99.90;;;;;;4996744;28;20461;-49
2021/05/30 05:32:59;;;;;;;5.43;2.23;;;12.70;99.90;;;;;;4996924;28;20427;-51
2021/05/30 05:35:26;;;;;;;5.30;3.27;;;12.70;99.90;;;;;;4996642;28;20542;-46
2021/05/30 05:37:54;;;;;;;5.03;2.63;;;12.80;99.90;;;;;;4996592;28;20484;-46
2021/05/30 05:40:21;;;;;;;3.10;2.80;;;12.80;99.90;;;;;;4996790;28;20599;-52
2021/05/30 05:42:49;;;;;;;3.00;2.37;;;12.90;99.90;;;;;;4996477;28;20446;-46
2021/05/30 05:45:17;;;;;;;3.00;2.70;;;12.90;99.90;;;;;;4996602;28;20476;-52
2021/05/30 05:47:43;;;;;;;4.90;3.30;;;13.00;99.90;;;;;;4996775;28;20518;-49
2021/05/30 05:50:10;;;;;;;4.10;2.87;;;13.00;99.90;;;;;;4996600;28;20459;-48
2021/05/30 05:52:37;;;;;;;3.43;2.40;;;13.10;99.90;;;;;;4996741;28;20461;-54
2021/05/30 05:55:04;;;;;;;4.60;2.43;;;13.10;99.90;;;;;;4996019;28;20497;-53
2021/05/30 05:57:30;;;;;;;5.13;2.83;;;13.10;99.90;;;;;;4996119;28;20442;-49
2021/05/30 05:59:56;;;;;;;3.60;2.77;;;13.20;99.90;;;;;;4996026;28;20434;-51
2021/05/30 06:02:25;;;;;;;6.60;2.73;;;13.30;99.90;;;;;;5002840;28;20465;-50
2021/05/30 06:04:57;;;;;;;4.30;2.97;;;13.30;99.90;;;;;;5015423;28;20477;-54
2021/05/30 06:07:24;;;;;;;6.83;3.03;;;13.30;99.90;;;;;;5015337;28;20430;-53
2021/05/30 06:09:51;;;;;;;3.70;2.90;;;13.40;99.90;;;;;;5015362;28;20450;-52
2021/05/30 18:47:06;;;;;;;4.03;2.80;;;18.40;48.60;;;;;;5572079;23;20545;-44
2021/05/30 18:49:32;;;;;;;4.20;2.80;;;18.30;48.50;;;;;;4981255;28;20451;-42
2021/05/30 18:51:59;;;;;;;8.07;2.97;;;18.20;49.20;;;;;;4981249;28;20463;-43
2021/05/30 18:54:25;;;;;;;6.47;3.20;;;18.20;49.00;;;;;;4981845;28;20450;-42
2021/05/30 18:56:51;;;;;;;6.57;3.10;;;18.20;49.10;;;;;;4978453;28;20486;-45
2021/05/30 18:59:19;;;;;;;4.27;2.87;;;18.10;49.20;;;;;;4978790;28;20498;-45
2021/05/30 19:01:45;;;;;;;8.00;3.43;;;18.00;49.20;;;;;;4979226;28;20481;-43
2021/05/30 19:04:12;;;;;;;6.30;3.37;;;18.00;49.50;;;;;;4978508;28;20447;-45
2021/05/30 19:06:39;;;;;;;5.80;2.73;;;17.90;49.20;;;;;;4998608;28;20446;-43
2021/05/30 19:09:05;;;;;;;3.77;3.13;;;17.80;48.90;;;;;;4981697;28;20466;-46
2021/05/30 19:11:32;;;;;;;5.73;3.30;;;17.80;49.00;;;;;;4978526;28;20926;-43
2021/05/30 19:13:58;;;;;;;5.10;3.47;;;17.70;48.90;;;;;;4977886;28;20470;-45
2021/05/30 19:16:24;;;;;;;8.73;5.07;;;17.70;49.30;;;;;;4977670;28;20487;-43
2021/05/30 19:18:50;;;;;;;14.30;3.63;;;17.60;49.20;;;;;;4977538;28;20814;-43
2021/05/30 19:21:17;;;;;;;5.87;3.80;;;17.60;49.50;;;;;;4977360;28;20459;-44
2021/05/30 19:23:44;;;;;;;7.67;3.10;;;17.60;49.60;;;;;;4978769;28;20466;-44
2021/05/30 19:26:10;;;;;;;3.20;2.67;;;17.50;49.80;;;;;;4979182;28;20466;-45
2021/05/30 19:28:36;;;;;;;5.80;3.77;;;17.50;49.40;;;;;;4979133;28;20817;-43
2021/05/30 19:31:06;;;;;;;8.47;3.10;;;17.50;49.80;;;;;;4987022;28;20466;-42
2021/05/30 19:33:32;;;;;;;4.20;3.17;;;17.40;49.70;;;;;;4995960;28;20457;-44
2021/05/30 19:35:58;;;;;;;3.20;2.90;;;17.40;49.80;;;;;;4996552;28;20478;-43
2021/05/30 19:38:30;;;;;;;3.30;2.77;;;17.30;49.70;;;;;;4996585;28;20457;-45
2021/05/30 19:40:56;;;;;;;3.40;3.10;;;17.30;50.50;;;;;;4996655;28;20893;-45
2021/05/30 19:43:23;;;;;;;4.27;3.30;;;17.20;50.20;;;;;;4996450;28;20446;-43
2021/05/30 19:45:49;;;;;;;7.73;3.00;;;17.10;50.30;;;;;;4996397;28;20442;-45
2021/05/30 19:48:16;;;;;;;8.03;3.80;;;17.10;50.40;;;;;;4996066;28;20505;-45
2021/05/30 19:50:42;;;;;;;4.80;3.13;;;17.00;50.40;;;;;;4994848;28;20948;-43
2021/05/30 19:53:08;;;;;;;7.60;4.30;;;16.90;50.30;;;;;;5005534;28;20441;-43
2021/05/30 19:55:36;;;;;;;6.87;4.10;;;16.80;50.60;;;;;;5002438;28;20485;-44
2021/05/30 19:58:02;;;;;;;9.80;4.10;;;16.70;50.80;;;;;;5002914;28;20495;-44
2021/05/30 20:00:30;;;;;;;76.73;39.80;;;16.70;51.00;;;;;;5005419;28;20468;-44
2021/05/30 20:02:56;;;;;;;15.40;8.43;;;16.60;51.30;;;;;;5005864;28;20473;-46
2021/05/30 20:05:24;;;;;;;5.13;3.43;;;16.60;50.90;;;;;;4999544;28;20940;-46
2021/05/30 20:07:51;;;;;;;14.53;4.13;;;16.60;50.70;;;;;;4999628;28;20469;-45
2021/05/30 20:10:21;;;;;;;8.40;3.80;;;16.50;50.80;;;;;;5009047;28;20516;-46
2021/05/30 20:12:50;;;;;;;10.50;4.00;;;16.50;50.80;;;;;;5003105;28;20472;-43
2021/05/30 20:15:16;;;;;;;6.53;3.20;;;16.40;51.00;;;;;;4997731;28;20485;-42
2021/05/30 20:17:43;;;;;;;6.10;3.20;;;16.40;51.00;;;;;;5005134;28;20785;-42
2021/05/30 20:20:11;;;;;;;7.00;4.00;;;16.30;51.20;;;;;;5005633;28;20458;-45
2021/05/30 20:22:38;;;;;;;4.83;3.47;;;16.30;51.50;;;;;;5016439;28;20445;-47
2021/05/30 20:25:05;;;;;;;4.33;2.90;;;16.20;51.20;;;;;;5016679;28;20453;-45
2021/05/30 20:27:37;;;;;;;5.60;3.30;;;16.10;51.40;;;;;;5007488;28;20470;-49
2021/05/30 20:30:06;;;;;;;5.90;2.90;;;16.10;51.60;;;;;;5010923;28;20433;-45
2021/05/30 20:32:34;;;;;;;11.37;3.50;;;16.00;52.10;;;;;;5014457;28;20464;-42
2021/05/30 20:35:00;;;;;;;4.87;3.67;;;16.00;52.30;;;;;;5003380;28;20995;-46
2021/05/30 20:37:27;;;;;;;5.10;2.87;;;15.90;52.60;;;;;;4997111;28;20450;-44
2021/05/30 20:39:56;;;;;;;4.07;3.67;;;15.90;52.80;;;;;;5000626;28;20489;-42
2021/05/30 20:42:22;;;;;;;7.33;3.10;;;15.80;52.90;;;;;;5004185;28;20488;-43
2021/05/30 20:44:49;;;;;;;4.00;3.70;;;15.80;53.30;;;;;;5009864;28;20464;-42
2021/05/30 20:47:16;;;;;;;4.63;3.00;;;15.70;53.50;;;;;;5008414;28;20787;-43
2021/05/30 20:49:43;;;;;;;4.20;3.00;;;15.70;53.80;;;;;;4999551;28;20824;-43
2021/05/30 20:52:09;;;;;;;5.07;2.90;;;15.60;53.90;;;;;;5002808;28;20461;-45
2021/05/30 20:54:38;;;;;;;5.03;3.57;;;15.50;53.90;;;;;;5000955;28;20445;-43
2021/05/30 20:57:05;;;;;;;4.30;3.10;;;15.50;54.20;;;;;;4994793;28;20550;-43
2021/05/30 20:59:31;;;;;;;4.87;2.60;;;15.50;54.50;;;;;;4998384;28;20442;-46
2021/05/30 21:01:57;;;;;;;4.73;3.10;;;15.40;54.60;;;;;;4993685;28;20457;-42
2021/05/30 21:04:24;;;;;;;4.30;2.80;;;15.40;55.10;;;;;;5004423;28;20441;-46
2021/05/30 21:06:50;;;;;;;5.50;3.07;;;15.30;55.20;;;;;;5005013;28;20436;-46
2021/05/30 21:09:16;;;;;;;6.33;3.00;;;15.30;55.30;;;;;;4996954;28;20454;-45
2021/05/30 21:11:43;;;;;;;5.73;3.20;;;15.20;55.30;;;;;;5005470;28;20445;-43
2021/05/30 21:14:09;;;;;;;4.90;3.47;;;15.10;55.60;;;;;;5000750;28;20442;-44
2021/05/30 21:16:37;;;;;;;9.53;3.80;;;15.10;55.60;;;;;;5005743;28;20485;-44
2021/05/30 21:19:04;;;;;;;7.07;3.40;;;15.00;55.80;;;;;;4999269;28;20446;-45
2021/05/30 21:21:31;;;;;;;4.13;2.80;;;15.00;56.10;;;;;;4999785;28;20516;-45
2021/05/30 21:23:58;;;;;;;4.73;2.63;;;15.00;55.90;;;;;;4996717;28;20446;-47
2021/05/30 21:26:25;;;;;;;4.00;3.00;;;14.90;55.80;;;;;;4999487;28;20461;-45
2021/05/30 21:28:53;;;;;;;7.23;3.97;;;14.90;55.90;;;;;;5002798;28;20449;-44
2021/05/30 21:31:20;;;;;;;3.80;3.40;;;14.80;55.80;;;;;;5003670;28;20769;-47
2021/05/30 21:33:46;;;;;;;4.27;2.43;;;14.80;55.80;;;;;;5007289;28;20449;-46
2021/05/30 21:36:13;;;;;;;4.57;3.20;;;14.70;55.70;;;;;;5004204;28;20800;-44
2021/05/30 21:38:40;;;;;;;2.87;2.40;;;14.70;55.50;;;;;;4988428;28;20453;-47
2021/05/30 21:41:06;;;;;;;4.37;3.07;;;14.70;55.90;;;;;;4994515;28;20442;-44
2021/05/30 21:55:00;;;;;;;4.83;2.63;;;14.40;56.80;;;;;;6012742;22;21308;-41
2021/05/30 22:13:01;;;;;;;5.07;2.60;;;14.10;58.10;;;;;;5968831;23;20413;-42
2021/05/30 22:15:31;;;;;;;7.43;3.30;;;14.00;58.40;;;;;;4968619;28;20887;-44
2021/05/30 22:20:43;;;;;;;4.07;2.77;;;13.80;58.80;;;;;;4939211;28;20427;-44
2021/05/30 22:23:13;;;;;;;5.30;2.37;;;13.80;59.60;;;;;;4969027;28;20447;-48
2021/05/30 22:25:39;;;;;;;3.50;2.50;;;13.70;59.10;;;;;;4959035;28;20490;-44
2021/05/30 22:28:06;;;;;;;3.93;2.13;;;13.70;59.10;;;;;;4961647;28;20507;-43
2021/05/30 22:30:33;;;;;;;3.93;2.80;;;13.60;59.20;;;;;;4958969;29;20789;-43
2021/05/30 22:32:59;;;;;;;3.53;2.77;;;13.60;59.30;;;;;;4958710;29;20452;-43
2021/05/30 22:35:25;;;;;;;4.47;2.43;;;13.60;59.60;;;;;;4959117;29;20455;-43
2021/05/30 22:37:52;;;;;;;2.73;2.47;;;13.60;59.70;;;;;;4958682;29;20444;-42
2021/05/30 22:40:19;;;;;;;5.00;2.97;;;13.60;60.10;;;;;;4959082;29;20448;-43
2021/05/30 22:42:46;;;;;;;4.97;2.70;;;13.50;60.00;;;;;;4958901;29;20523;-48
2021/05/30 22:45:14;;;;;;;4.80;2.77;;;13.40;60.70;;;;;;4958487;29;20479;-47
2021/05/30 22:47:40;;;;;;;3.70;2.53;;;13.40;61.20;;;;;;4958719;29;20506;-43
2021/05/30 22:50:09;;;;;;;5.03;3.27;;;13.30;61.50;;;;;;4977703;28;20455;-43
2021/05/30 22:52:35;;;;;;;4.57;3.13;;;13.30;62.00;;;;;;4977988;28;20446;-45
2021/05/30 22:55:01;;;;;;;7.03;3.17;;;13.20;62.70;;;;;;4977871;28;20462;-44
